Time;durP1;ratioP1;P1;durP2;ratioP2;P2;SDS_P1;SDS_P2;PMS_P1;PMS_P2;Temp;Humidity;BMP_temperature;BMP_pressure;BME280_temperature;BME280_humidity;BME280_pressure;Samples;Min_cycle;Max_cycle;Signal;HPM_P1;HPM_P2
2022/01/21 00:02:25;;;;;;;0.20;0.20;;;;;;;18.86;39.02;102807.78;5120099;28;20055;-30
2022/01/21 00:04:51;;;;;;;0.20;0.20;;;;;;;18.87;38.80;102812.22;5124507;28;20043;-31
2022/01/21 00:07:16;;;;;;;0.30;0.30;;;;;;;18.86;39.18;102811.38;5123059;28;20051;-31
2022/01/21 00:09:46;;;;;;;0.20;0.20;;;;;;;18.86;39.04;102813.31;5123855;28;20039;-31
2022/01/21 00:12:11;;;;;;;0.20;0.20;;;;;;;18.86;39.11;102819.66;5123169;28;20041;-34
2022/01/21 00:14:38;;;;;;;0.30;0.30;;;;;;;18.86;39.06;102825.19;5123926;28;20074;-31
2022/01/21 00:17:03;;;;;;;0.22;0.22;;;;;;;18.86;39.12;102822.44;5122858;28;20124;-31
2022/01/21 00:19:37;;;;;;;0.20;0.20;;;;;;;18.86;39.12;102816.91;5124449;28;20154;-33
2022/01/21 00:30:23;;;;;;;0.28;0.28;;;;;;;18.86;39.02;102832.63;5108456;28;20216;-35
2022/01/21 00:32:49;;;;;;;0.20;0.20;;;;;;;18.84;39.19;102835.63;5122355;28;20047;-31
2022/01/21 00:35:16;;;;;;;0.20;0.20;;;;;;;18.85;39.02;102833.72;5124070;27;20133;-31
2022/01/21 00:37:42;;;;;;;0.20;0.20;;;;;;;18.85;39.09;102830.97;5120764;28;20047;-32
2022/01/21 00:40:10;;;;;;;0.20;0.20;;;;;;;18.85;38.87;102819.91;5106779;28;20047;-32
2022/01/21 00:45:11;;;;;;;0.20;0.20;;;;;;;18.84;38.94;102821.84;5106121;28;20061;-37
2022/01/21 00:47:36;;;;;;;0.30;0.30;;;;;;;18.85;39.15;102819.91;5104556;28;20193;-30
2022/01/21 00:50:03;;;;;;;0.30;0.30;;;;;;;18.84;38.97;102816.31;5121158;27;20051;-31
2022/01/21 00:52:29;;;;;;;0.20;0.20;;;;;;;18.84;39.05;102824.59;5101786;28;20433;-33
2022/01/21 00:54:54;;;;;;;0.20;0.20;;;;;;;18.83;39.15;102828.44;5103250;28;20062;-34
2022/01/21 00:57:20;;;;;;;0.20;0.20;;;;;;;18.85;39.02;102842.00;5114133;27;20039;-29
2022/01/21 00:59:46;;;;;;;0.20;0.20;;;;;;;18.84;39.17;102843.91;5096786;28;20051;-30
2022/01/21 01:02:11;;;;;;;0.20;0.20;;;;;;;18.84;39.18;102854.13;5114836;28;20047;-32
2022/01/21 01:04:37;;;;;;;0.20;0.20;;;;;;;18.82;39.09;102846.06;5115196;28;20047;-32
2022/01/21 01:07:04;;;;;;;0.20;0.20;;;;;;;18.83;39.20;102847.75;5123894;28;20453;-30
2022/01/21 01:09:29;;;;;;;0.20;0.20;;;;;;;18.82;39.14;102837.78;5119219;28;20047;-30
2022/01/21 01:20:03;;;;;;;0.20;0.20;;;;;;;18.82;39.12;102823.97;5098538;28;20122;-32
2022/01/21 01:22:44;;;;;;;0.20;0.20;;;;;;;18.82;38.97;102814.84;5104779;28;20055;-30
2022/01/21 01:27:56;;;;;;;0.20;0.20;;;;;;;18.83;38.99;102813.78;5107182;28;20053;-30
2022/01/21 01:30:24;;;;;;;0.20;0.20;;;;;;;18.81;39.18;102816.78;5122572;28;20048;-31
2022/01/21 01:32:51;;;;;;;0.30;0.30;;;;;;;18.80;39.32;102824.22;5121138;28;20191;-33
2022/01/21 01:35:20;;;;;;;0.30;0.30;;;;;;;18.81;39.14;102822.28;5122473;28;20049;-30
2022/01/21 01:40:29;;;;;;;0.20;0.20;;;;;;;18.80;38.96;102834.41;5123348;27;20061;-31
2022/01/21 01:49:22;;;;;;;0.30;0.30;;;;;;;18.80;39.13;102829.72;5122047;28;20378;-31
2022/01/21 01:50:59;;;;;;;0.25;0.25;;;;;;;18.80;39.02;102826.97;5103592;28;20051;-31
2022/01/21 01:53:30;;;;;;;0.20;0.20;;;;;;;18.80;39.11;102826.97;5118535;28;20043;-31
2022/01/21 01:55:56;;;;;;;0.20;0.20;;;;;;;18.80;39.00;102821.44;5121717;28;20047;-35
2022/01/21 01:58:21;;;;;;;0.20;0.20;;;;;;;18.80;39.09;102823.38;5103697;28;20061;-32
2022/01/21 02:00:47;;;;;;;0.20;0.20;;;;;;;18.79;39.08;102836.34;5104433;28;20059;-36
2022/01/21 02:03:15;;;;;;;0.20;0.20;;;;;;;18.80;39.01;102851.81;5122726;27;20046;-30
2022/01/21 02:05:42;;;;;;;0.20;0.20;;;;;;;18.80;39.10;102839.94;5106672;28;20074;-30
2022/01/21 02:08:10;;;;;;;0.30;0.30;;;;;;;18.80;39.26;102839.94;5120831;27;20047;-31
2022/01/21 02:10:36;;;;;;;0.22;0.22;;;;;;;18.78;39.04;102837.41;5106197;28;20099;-30
2022/01/21 02:13:05;;;;;;;0.20;0.20;;;;;;;18.80;39.09;102837.19;5120406;28;20419;-30
2022/01/21 02:15:37;;;;;;;0.20;0.20;;;;;;;18.79;39.12;102830.81;5105678;28;20039;-30
2022/01/21 02:23:35;;;;;;;0.20;0.20;;;;;;;18.78;39.02;102823.63;5106171;28;20434;-32
2022/01/21 02:26:01;;;;;;;0.30;0.30;;;;;;;18.79;39.09;102816.19;5121906;28;20047;-32
2022/01/21 02:28:27;;;;;;;0.30;0.30;;;;;;;18.78;39.20;102814.47;5104241;28;20109;-30
2022/01/21 02:30:55;;;;;;;0.20;0.20;;;;;;;18.79;39.12;102818.94;5120462;28;20453;-30
2022/01/21 02:33:22;;;;;;;0.30;0.30;;;;;;;18.79;39.25;102821.69;5120273;28;20398;-33
2022/01/21 02:35:47;;;;;;;0.30;0.30;;;;;;;18.77;39.12;102826.59;5102972;28;20405;-31
2022/01/21 02:38:13;;;;;;;0.20;0.20;;;;;;;18.78;39.16;102831.03;5120462;28;20472;-36
2022/01/21 02:40:39;;;;;;;0.30;0.30;;;;;;;18.78;39.29;102837.41;5102340;28;20115;-31
2022/01/21 02:43:04;;;;;;;0.30;0.30;;;;;;;18.78;39.18;102847.59;5123193;28;20047;-32
2022/01/21 02:45:30;;;;;;;0.20;0.20;;;;;;;18.79;39.06;102849.31;5121242;28;20057;-31
2022/01/21 02:47:56;;;;;;;0.20;0.20;;;;;;;18.78;39.10;102848.47;5119544;28;20458;-32
2022/01/21 02:50:21;;;;;;;0.20;0.20;;;;;;;18.78;39.09;102853.97;5122069;27;20044;-30
2022/01/21 02:55:32;;;;;;;0.20;0.20;;;;;;;18.76;39.21;102853.34;5110660;28;20035;-30
2022/01/21 02:57:58;;;;;;;0.20;0.20;;;;;;;18.78;38.97;102853.09;5124334;28;20058;-34
2022/01/21 03:00:24;;;;;;;0.20;0.20;;;;;;;18.77;39.16;102849.50;5121768;28;20300;-32
2022/01/21 03:02:50;;;;;;;0.20;0.20;;;;;;;18.77;39.08;102852.28;5122023;28;20039;-33
2022/01/21 03:05:17;;;;;;;0.20;0.20;;;;;;;18.76;39.11;102847.84;5124315;28;20043;-32
2022/01/21 03:07:43;;;;;;;0.20;0.20;;;;;;;18.78;38.95;102853.09;5121939;28;20035;-31
2022/01/21 03:10:09;;;;;;;0.20;0.20;;;;;;;18.76;39.29;102861.63;5126381;28;20146;-33
2022/01/21 03:12:35;;;;;;;0.30;0.30;;;;;;;18.77;39.05;102857.78;5096922;28;20126;-31
2022/01/21 03:15:01;;;;;;;0.30;0.30;;;;;;;18.77;39.05;102857.78;5125204;28;20087;-31
2022/01/21 03:17:26;;;;;;;0.20;0.20;;;;;;;18.77;39.05;102863.31;5124603;28;20047;-31
2022/01/21 03:19:52;;;;;;;0.30;0.30;;;;;;;18.76;38.95;102866.31;5124579;28;20051;-32
2022/01/21 03:22:18;;;;;;;0.20;0.20;;;;;;;18.76;39.05;102861.63;5119815;28;20043;-31
2022/01/21 03:24:43;;;;;;;0.20;0.20;;;;;;;18.76;39.03;102863.56;5125642;28;20047;-33
2022/01/21 03:27:09;;;;;;;0.30;0.30;;;;;;;18.75;39.26;102862.72;5125163;28;20051;-31
2022/01/21 03:29:35;;;;;;;0.20;0.20;;;;;;;18.76;39.11;102856.13;5123117;28;20039;-30
2022/01/21 03:32:00;;;;;;;0.20;0.20;;;;;;;18.75;39.05;102854.44;5124288;28;20039;-31
2022/01/21 03:34:26;;;;;;;0.30;0.30;;;;;;;18.75;39.20;102848.91;5124119;28;20047;-32
2022/01/21 03:36:54;;;;;;;0.20;0.20;;;;;;;18.75;38.98;102845.31;5124398;28;20479;-30
2022/01/21 03:39:20;;;;;;;0.20;0.20;;;;;;;18.76;39.11;102847.84;5124608;28;20047;-31
2022/01/21 03:41:45;;;;;;;0.20;0.20;;;;;;;18.75;39.14;102839.78;5124174;28;20047;-32
2022/01/21 03:44:11;;;;;;;0.30;0.30;;;;;;;18.76;39.09;102847.00;5125065;28;20079;-31
2022/01/21 03:46:37;;;;;;;0.20;0.20;;;;;;;18.75;39.11;102843.41;5123967;28;20047;-30
2022/01/21 03:49:05;;;;;;;0.30;0.30;;;;;;;18.75;39.15;102840.63;5122176;28;20047;-31
2022/01/21 03:51:30;;;;;;;0.20;0.20;;;;;;;18.75;39.14;102843.41;5122964;28;20099;-30
2022/01/21 03:53:56;;;;;;;0.20;0.20;;;;;;;18.75;39.15;102843.41;5122352;28;20464;-31
2022/01/21 03:56:22;;;;;;;0.20;0.20;;;;;;;18.75;39.05;102850.84;5122306;28;20089;-32
2022/01/21 03:58:49;;;;;;;0.20;0.20;;;;;;;18.75;38.98;102859.94;5122893;28;20109;-33
2022/01/21 04:01:16;;;;;;;0.20;0.20;;;;;;;18.74;39.10;102852.75;5123236;28;20406;-34
2022/01/21 04:03:41;;;;;;;0.30;0.30;;;;;;;18.75;38.97;102857.19;5123281;27;20355;-30
2022/01/21 04:06:07;;;;;;;0.20;0.20;;;;;;;18.74;39.29;102858.28;5122535;28;20104;-31
2022/01/21 04:08:33;;;;;;;0.22;0.22;;;;;;;18.75;39.31;102864.63;5123190;28;20511;-30
2022/01/21 04:10:59;;;;;;;0.20;0.20;;;;;;;18.75;39.22;102867.41;5121139;28;20058;-31
2022/01/21 04:13:26;;;;;;;0.20;0.20;;;;;;;18.75;39.15;102867.41;5123134;28;20511;-35
2022/01/21 04:15:54;;;;;;;0.30;0.30;;;;;;;18.74;39.02;102863.78;5121796;28;20043;-33
2022/01/21 04:18:20;;;;;;;0.27;0.27;;;;;;;18.73;39.19;102862.09;5123300;28;20054;-35
2022/01/21 04:20:48;;;;;;;0.20;0.20;;;;;;;18.74;39.30;102852.75;5096866;28;20039;-31
2022/01/21 04:23:15;;;;;;;0.20;0.20;;;;;;;18.73;39.05;102851.03;5104799;28;20054;-30
2022/01/21 04:25:41;;;;;;;0.20;0.20;;;;;;;18.73;39.04;102855.72;5124553;28;20252;-31
2022/01/21 04:28:07;;;;;;;0.30;0.30;;;;;;;18.72;39.29;102846.59;5122592;28;20326;-33
2022/01/21 04:30:33;;;;;;;0.22;0.22;;;;;;;18.74;39.11;102858.28;5107419;28;20039;-32
2022/01/21 04:32:59;;;;;;;0.20;0.20;;;;;;;18.74;39.11;102854.69;5121589;28;20051;-31
2022/01/21 04:35:25;;;;;;;0.20;0.20;;;;;;;18.73;39.16;102853.81;5124302;28;20397;-30
2022/01/21 04:37:55;;;;;;;0.30;0.30;;;;;;;18.73;39.04;102853.81;5122508;28;20048;-33
2022/01/21 04:40:24;;;;;;;0.20;0.20;;;;;;;18.73;39.11;102847.44;5124330;27;20055;-31
2022/01/21 04:48:21;;;;;;;0.20;0.20;;;;;;;18.73;39.10;102859.31;5119134;28;20043;-31
2022/01/21 04:50:58;;;;;;;0.20;0.20;;;;;;;18.74;39.10;102854.69;5122422;27;20562;-31
2022/01/21 04:53:25;;;;;;;0.20;0.20;;;;;;;18.72;39.02;102859.56;5118089;28;20045;-30
2022/01/21 04:55:51;;;;;;;0.20;0.20;;;;;;;18.72;39.19;102856.81;5123480;28;20074;-35
2022/01/21 04:58:16;;;;;;;0.20;0.20;;;;;;;18.72;39.25;102854.88;5121417;28;20040;-31
2022/01/21 05:00:43;;;;;;;0.20;0.20;;;;;;;18.72;39.20;102860.41;5124635;28;20047;-31
2022/01/21 05:03:10;;;;;;;0.30;0.30;;;;;;;18.72;39.07;102863.16;5105385;28;20455;-31
2022/01/21 05:05:37;;;;;;;0.30;0.30;;;;;;;18.72;39.29;102857.66;5105870;28;20046;-31
2022/01/21 05:08:06;;;;;;;0.20;0.20;;;;;;;18.72;39.23;102860.41;5121881;28;20473;-35
2022/01/21 05:10:34;;;;;;;0.30;0.30;;;;;;;18.71;39.21;102850.44;5105379;28;20043;-31
2022/01/21 05:13:00;;;;;;;0.30;0.30;;;;;;;18.72;39.08;102849.38;5122150;28;20046;-32
2022/01/21 05:15:41;;;;;;;0.20;0.20;;;;;;;18.71;39.03;102844.09;5123989;27;20375;-31
2022/01/21 05:18:06;;;;;;;0.20;0.20;;;;;;;18.71;39.34;102850.44;5123282;28;20036;-32
2022/01/21 05:20:32;;;;;;;0.20;0.20;;;;;;;18.72;39.06;102851.28;5124711;28;20391;-31
2022/01/21 05:22:58;;;;;;;0.20;0.20;;;;;;;18.72;38.98;102854.03;5118773;28;20070;-31
2022/01/21 05:25:24;;;;;;;0.30;0.30;;;;;;;18.72;39.30;102857.66;5121556;28;20058;-31
2022/01/21 05:27:53;;;;;;;0.20;0.20;;;;;;;18.71;39.17;102861.50;5120565;28;20266;-34
2022/01/21 05:30:19;;;;;;;0.20;0.20;;;;;;;18.72;39.15;102856.81;5105096;28;20043;-31
2022/01/21 05:32:45;;;;;;;0.20;0.20;;;;;;;18.71;39.16;102861.50;5123401;28;20130;-31
2022/01/21 05:35:11;;;;;;;0.30;0.30;;;;;;;18.72;39.21;102868.69;5101937;28;20237;-33
2022/01/21 05:37:37;;;;;;;0.20;0.20;;;;;;;18.71;39.31;102866.16;5123645;28;20502;-31
2022/01/21 05:40:06;;;;;;;0.30;0.30;;;;;;;18.71;39.33;102872.53;5119664;28;20046;-35
2022/01/21 05:42:34;;;;;;;0.30;0.30;;;;;;;18.71;39.13;102868.94;5104472;28;20050;-34
2022/01/21 05:47:39;;;;;;;0.20;0.20;;;;;;;18.70;39.32;102870.84;5160208;27;20213;-27
2022/01/21 05:50:06;;;;;;;0.30;0.30;;;;;;;18.72;39.34;102885.25;5160067;27;20050;-27
2022/01/21 05:52:37;;;;;;;0.20;0.20;;;;;;;18.72;39.19;102884.41;5155472;27;20074;-27
2022/01/21 05:55:07;;;;;;;0.30;0.30;;;;;;;18.71;39.37;102879.97;5158702;27;20125;-27
2022/01/21 05:57:33;;;;;;;0.20;0.20;;;;;;;18.71;39.34;102874.44;5160550;27;20046;-27
2022/01/21 05:59:59;;;;;;;0.20;0.20;;;;;;;18.70;39.41;102870.84;5156378;27;20404;-27
2022/01/21 06:02:24;;;;;;;0.30;0.30;;;;;;;18.71;39.25;102877.22;5157649;27;20050;-27
2022/01/21 06:04:51;;;;;;;0.20;0.20;;;;;;;18.70;39.43;102872.78;5160769;27;20095;-28
2022/01/21 06:07:17;;;;;;;0.20;0.20;;;;;;;18.70;39.57;102875.53;5158798;27;20090;-27
2022/01/21 06:09:43;;;;;;;0.30;0.30;;;;;;;18.70;39.41;102876.38;5158070;27;21165;-27
2022/01/21 06:12:09;;;;;;;0.30;0.30;;;;;;;18.70;39.46;102884.66;5155294;27;20049;-27
2022/01/21 06:14:36;;;;;;;0.20;0.20;;;;;;;18.71;39.38;102888.25;5162988;27;20161;-27
2022/01/21 06:17:02;;;;;;;0.30;0.30;;;;;;;18.70;39.44;102878.28;5158147;27;20057;-27
2022/01/21 06:19:28;;;;;;;0.20;0.20;;;;;;;18.72;39.65;102892.69;5150330;27;20043;-27
2022/01/21 06:21:54;;;;;;;0.20;0.20;;;;;;;18.71;39.47;102891.00;5147435;27;20362;-27
2022/01/21 06:24:20;;;;;;;0.20;0.20;;;;;;;18.71;39.63;102896.53;5147170;27;20043;-27
2022/01/21 06:26:46;;;;;;;0.30;0.30;;;;;;;18.71;39.59;102899.28;5141584;27;20049;-27
2022/01/21 06:29:11;;;;;;;0.20;0.20;;;;;;;18.71;39.51;102902.06;5149149;27;20046;-27
2022/01/21 06:31:37;;;;;;;0.20;0.20;;;;;;;18.70;39.52;102890.16;5148391;27;20051;-27
2022/01/21 06:34:03;;;;;;;0.20;0.20;;;;;;;18.70;39.55;102903.97;5121519;27;20078;-27
2022/01/21 06:36:28;;;;;;;0.30;0.30;;;;;;;18.71;39.40;102894.59;5145343;27;20050;-27
2022/01/21 06:38:54;;;;;;;0.20;0.20;;;;;;;18.71;39.48;102904.81;5143647;27;20533;-27
2022/01/21 06:41:20;;;;;;;0.20;0.20;;;;;;;18.71;39.49;102904.81;5146490;27;20048;-28
2022/01/21 06:43:45;;;;;;;0.20;0.20;;;;;;;18.70;39.55;102908.66;5140913;27;20094;-27
2022/01/21 06:46:12;;;;;;;0.30;0.30;;;;;;;18.71;39.52;102924.13;5140090;27;20294;-27
2022/01/21 06:48:38;;;;;;;0.20;0.20;;;;;;;18.70;39.24;102925.22;5125015;27;20500;-28
2022/01/21 06:51:06;;;;;;;0.20;0.20;;;;;;;18.70;39.51;102927.97;5141626;27;20540;-27
2022/01/21 06:53:32;;;;;;;0.20;0.20;;;;;;;18.70;39.52;102931.56;5140990;27;20042;-28
2022/01/21 06:55:58;;;;;;;0.20;0.20;;;;;;;18.69;39.19;102927.09;5138581;27;20074;-28
2022/01/21 06:58:23;;;;;;;0.20;0.20;;;;;;;18.70;39.39;102927.97;5123978;27;20047;-28
2022/01/21 07:00:49;;;;;;;0.28;0.28;;;;;;;18.70;39.16;102928.81;5118937;27;20364;-29
2022/01/21 07:03:15;;;;;;;0.20;0.20;;;;;;;18.69;39.42;102924.34;5108728;27;20054;-30
2022/01/21 07:05:40;;;;;;;0.30;0.30;;;;;;;18.70;39.53;102927.97;5107472;27;20059;-29
2022/01/21 07:08:06;;;;;;;0.20;0.20;;;;;;;18.71;39.18;102929.66;5104164;27;20070;-32
2022/01/21 07:10:32;;;;;;;0.30;0.30;;;;;;;18.71;37.02;102927.72;5106165;27;20042;-30
2022/01/21 07:13:03;;;;;;;0.20;0.20;;;;;;;18.85;38.72;102933.09;5106739;27;20053;-31
2022/01/21 07:15:28;;;;;;;0.20;0.20;;;;;;;18.90;36.92;102934.09;5111451;27;20146;-30
2022/01/21 07:17:54;;;;;;;0.20;0.20;;;;;;;19.02;36.75;102931.41;5108702;27;20073;-33
2022/01/21 07:20:20;;;;;;;0.20;0.20;;;;;;;19.09;38.75;102932.19;5108426;27;20059;-29
2022/01/21 07:22:46;;;;;;;0.30;0.30;;;;;;;19.08;39.23;102927.69;5104127;27;20052;-29
2022/01/21 07:25:13;;;;;;;0.22;0.22;;;;;;;19.05;39.21;102928.19;5096851;27;20046;-28
2022/01/21 07:27:39;;;;;;;0.30;0.30;;;;;;;19.03;39.04;102927.56;5113371;27;20043;-32
2022/01/21 07:30:05;;;;;;;0.20;0.20;;;;;;;19.01;39.11;102930.56;5096948;27;20416;-28
2022/01/21 07:32:31;;;;;;;0.20;0.20;;;;;;;19.02;39.18;102920.34;5092396;27;20044;-29
2022/01/21 07:34:57;;;;;;;0.30;0.30;;;;;;;19.01;39.00;102927.81;5114043;27;20126;-29
2022/01/21 07:37:22;;;;;;;0.20;0.20;;;;;;;19.02;39.02;102939.69;5113882;27;20455;-28
2022/01/21 07:39:48;;;;;;;0.20;0.20;;;;;;;19.01;38.91;102944.38;5095905;27;20050;-29
2022/01/21 07:42:14;;;;;;;0.20;0.20;;;;;;;19.02;39.08;102943.28;5092888;27;20039;-28
2022/01/21 07:44:40;;;;;;;0.20;0.20;;;;;;;19.02;38.93;102940.53;5114553;27;20503;-30
2022/01/21 07:47:06;;;;;;;0.30;0.30;;;;;;;19.03;38.79;102949.66;5110357;27;20043;-28
2022/01/21 07:49:31;;;;;;;0.20;0.20;;;;;;;19.04;38.86;102943.91;5116220;27;20382;-29
2022/01/21 07:51:57;;;;;;;0.20;0.20;;;;;;;19.05;39.18;102964.94;5096173;27;20051;-28
2022/01/21 07:54:23;;;;;;;0.20;0.20;;;;;;;19.05;39.04;102973.22;5091030;27;20047;-28
2022/01/21 07:56:49;;;;;;;0.20;0.20;;;;;;;19.07;38.91;102972.97;5110767;27;20052;-28
2022/01/21 07:59:15;;;;;;;0.20;0.20;;;;;;;19.07;38.70;102975.72;5110132;27;20544;-28
2022/01/21 08:01:41;;;;;;;0.20;0.20;;;;;;;19.07;38.72;102980.41;5097502;27;20047;-29
2022/01/21 08:04:07;;;;;;;0.20;0.20;;;;;;;19.09;38.66;102983.81;5111135;27;20062;-28
2022/01/21 08:06:34;;;;;;;0.20;0.20;;;;;;;19.10;38.77;102978.03;5099786;27;20039;-28
2022/01/21 08:08:59;;;;;;;0.20;0.20;;;;;;;19.11;38.64;102976.13;5093311;27;20375;-29
2022/01/21 08:11:26;;;;;;;0.20;0.20;;;;;;;19.11;38.64;102987.16;5102175;27;20563;-28
2022/01/21 08:13:52;;;;;;;0.20;0.20;;;;;;;19.12;38.50;102980.56;5085833;27;20486;-28
2022/01/21 08:16:18;;;;;;;0.20;0.20;;;;;;;19.12;38.62;102964.84;5099611;27;20079;-29
2022/01/21 08:18:44;;;;;;;0.20;0.20;;;;;;;19.14;38.52;102953.56;5105222;27;20146;-28
2022/01/21 08:21:18;;;;;;;0.20;0.20;;;;;;;19.14;38.46;102953.56;5100193;27;20440;-29
2022/01/21 08:23:47;;;;;;;0.20;0.20;;;;;;;19.16;38.69;102965.22;5104654;27;20052;-29
2022/01/21 08:26:13;;;;;;;0.20;0.20;;;;;;;19.15;38.29;102964.38;5099471;27;20054;-28
2022/01/21 08:28:39;;;;;;;0.20;0.20;;;;;;;19.16;38.33;102963.28;5102656;27;20047;-28
2022/01/21 08:31:04;;;;;;;0.20;0.20;;;;;;;19.17;38.31;102964.13;5103579;27;20036;-28
2022/01/21 08:33:30;;;;;;;0.20;0.20;;;;;;;19.16;38.20;102966.06;5100213;27;20076;-29
2022/01/21 08:35:56;;;;;;;0.20;0.20;;;;;;;19.16;38.39;102976.25;5105788;27;20043;-28
2022/01/21 08:38:21;;;;;;;0.20;0.20;;;;;;;19.15;38.14;102975.44;5107274;27;20723;-29
2022/01/21 08:40:48;;;;;;;0.20;0.20;;;;;;;19.15;38.09;102969.06;5086415;27;20387;-28
2022/01/21 08:43:14;;;;;;;0.20;0.20;;;;;;;19.14;38.45;102959.94;5088507;27;20047;-28
2022/01/21 08:45:39;;;;;;;0.20;0.20;;;;;;;19.15;38.08;102958.00;5073269;27;20383;-29
2022/01/21 08:48:05;;;;;;;0.20;0.20;;;;;;;19.15;38.15;102974.59;5085360;27;20048;-29
2022/01/21 08:50:31;;;;;;;0.20;0.20;;;;;;;19.12;38.09;102970.34;5105144;27;20394;-29
2022/01/21 08:53:08;;;;;;;0.20;0.20;;;;;;;19.14;38.44;102975.66;5095273;27;20063;-29
2022/01/21 08:55:34;;;;;;;0.20;0.20;;;;;;;19.12;38.31;102961.22;5101689;27;20051;-28
2022/01/21 08:58:00;;;;;;;0.20;0.20;;;;;;;19.12;38.16;102970.34;5107094;27;20044;-29
2022/01/21 09:00:26;;;;;;;0.20;0.20;;;;;;;19.12;38.29;102961.22;5074211;27;20051;-29
2022/01/21 09:02:53;;;;;;;0.20;0.20;;;;;;;19.11;38.03;102962.31;5101584;27;20099;-29
2022/01/21 09:05:19;;;;;;;0.30;0.30;;;;;;;19.11;38.34;102968.69;5074621;27;20046;-29
2022/01/21 09:07:45;;;;;;;0.20;0.20;;;;;;;19.10;38.06;102972.53;5099608;27;20474;-29
2022/01/21 09:10:11;;;;;;;0.20;0.20;;;;;;;19.11;37.99;102974.19;5086842;27;20080;-29
2022/01/21 09:12:38;;;;;;;0.20;0.20;;;;;;;19.11;38.06;102976.13;5101221;27;20074;-30
2022/01/21 09:15:05;;;;;;;0.20;0.20;;;;;;;19.11;38.35;102976.13;5108007;27;21474;-28
2022/01/21 09:17:31;;;;;;;0.20;0.20;;;;;;;19.10;38.24;102971.69;5103309;27;20462;-28
2022/01/21 09:19:56;;;;;;;0.20;0.20;;;;;;;19.09;38.32;102965.31;5106459;27;20104;-29
2022/01/21 09:22:22;;;;;;;0.20;0.20;;;;;;;19.09;38.37;102965.31;5098115;27;20047;-28
2022/01/21 09:24:48;;;;;;;0.20;0.20;;;;;;;19.09;38.19;102965.31;5104403;27;20111;-28
2022/01/21 09:27:13;;;;;;;0.20;0.20;;;;;;;19.09;38.13;102972.75;5103400;27;20051;-29
2022/01/21 09:29:41;;;;;;;0.20;0.20;;;;;;;19.09;38.38;102972.75;5109350;27;21097;-28
2022/01/21 09:32:07;;;;;;;0.20;0.20;;;;;;;19.09;38.19;102981.03;5105589;27;20036;-30
2022/01/21 09:34:33;;;;;;;0.20;0.20;;;;;;;19.09;38.36;102976.38;5081129;27;20047;-29
2022/01/21 09:36:59;;;;;;;0.20;0.20;;;;;;;19.09;38.46;102981.03;5093945;27;20836;-29
2022/01/21 09:39:27;;;;;;;0.30;0.30;;;;;;;19.09;38.30;102975.53;5115826;27;20054;-29
2022/01/21 09:41:57;;;;;;;0.20;0.20;;;;;;;19.08;38.43;102982.09;5075743;27;20043;-29
2022/01/21 09:44:22;;;;;;;0.20;0.20;;;;;;;19.08;38.57;102984.84;5087377;27;20100;-28
2022/01/21 09:46:50;;;;;;;0.35;0.35;;;;;;;19.08;38.14;102977.41;5109822;27;20047;-28
2022/01/21 09:49:27;;;;;;;0.20;0.20;;;;;;;19.09;38.27;102979.13;5111761;27;20237;-28
2022/01/21 09:52:02;;;;;;;0.20;0.20;;;;;;;19.09;38.30;102979.13;5088880;27;20047;-28
2022/01/21 09:54:31;;;;;;;0.20;0.20;;;;;;;19.08;38.21;102984.84;5113837;27;20076;-29
2022/01/21 09:56:58;;;;;;;0.30;0.30;;;;;;;19.08;38.40;102982.94;5095787;27;20356;-29
2022/01/21 09:59:26;;;;;;;0.20;0.20;;;;;;;19.08;38.31;102977.41;5118401;27;20043;-29
2022/01/21 10:01:55;;;;;;;0.20;0.20;;;;;;;19.08;38.42;102982.94;5117523;27;20355;-28
2022/01/21 10:04:25;;;;;;;0.20;0.20;;;;;;;19.08;38.17;102980.16;5112749;27;20059;-28
2022/01/21 10:06:51;;;;;;;0.20;0.20;;;;;;;19.08;38.29;102973.81;5076399;27;20047;-28
2022/01/21 10:09:20;;;;;;;0.20;0.20;;;;;;;19.07;38.33;102981.25;5088568;27;20085;-29
2022/01/21 10:11:49;;;;;;;0.28;0.28;;;;;;;19.07;38.15;102980.41;5093829;27;20040;-28
2022/01/21 10:14:20;;;;;;;0.20;0.20;;;;;;;19.07;38.14;102974.88;5114049;27;20057;-29
2022/01/21 10:16:48;;;;;;;0.30;0.30;;;;;;;19.05;38.27;102977.91;5097607;27;20043;-29
2022/01/21 10:19:21;;;;;;;0.20;0.20;;;;;;;19.06;38.14;102985.09;5109449;27;20430;-29
2022/01/21 10:21:56;;;;;;;0.20;0.20;;;;;;;19.05;38.33;102988.94;5074726;27;20306;-29
2022/01/21 10:24:22;;;;;;;0.20;0.20;;;;;;;19.05;38.25;102989.78;5074272;27;20057;-29
2022/01/21 10:26:50;;;;;;;0.20;0.20;;;;;;;19.08;38.32;102987.63;5086261;27;20298;-28
2022/01/21 10:29:16;;;;;;;0.20;0.20;;;;;;;19.10;38.18;102988.25;5090148;27;20039;-29
2022/01/21 10:31:59;;;;;;;0.20;0.20;;;;;;;19.10;38.32;102994.63;5089649;27;20042;-28
2022/01/21 10:34:29;;;;;;;0.20;0.20;;;;;;;19.09;38.54;102994.84;5095764;27;20039;-28
2022/01/21 10:37:04;;;;;;;0.20;0.20;;;;;;;19.09;38.27;103006.75;5095578;27;20108;-28
2022/01/21 10:39:31;;;;;;;0.20;0.20;;;;;;;19.07;38.32;103000.59;5109689;27;20074;-28
2022/01/21 10:41:58;;;;;;;0.20;0.20;;;;;;;19.08;38.28;103004.19;5111680;27;20044;-28
2022/01/21 10:44:27;;;;;;;0.20;0.20;;;;;;;19.07;38.55;103003.34;5117354;27;20047;-28
2022/01/21 10:47:09;;;;;;;0.30;0.30;;;;;;;19.07;38.45;103003.34;5114120;27;20806;-28
2022/01/21 10:49:39;;;;;;;0.20;0.20;;;;;;;19.07;38.20;102995.06;5095273;27;20426;-29
2022/01/21 10:52:05;;;;;;;0.20;0.20;;;;;;;19.07;38.51;102995.06;5107420;27;20055;-28
2022/01/21 10:54:31;;;;;;;0.20;0.20;;;;;;;19.08;38.42;102984.84;5121916;27;20125;-29
2022/01/21 10:57:15;;;;;;;0.25;0.25;;;;;;;19.08;38.36;102984.84;5120258;27;20444;-29
2022/01/21 10:59:47;;;;;;;0.20;0.20;;;;;;;19.09;38.14;102986.56;5096309;27;20057;-29
2022/01/21 11:02:13;;;;;;;0.20;0.20;;;;;;;19.09;38.24;102984.66;5093518;27;20211;-28
2022/01/21 11:04:41;;;;;;;0.20;0.20;;;;;;;19.02;36.38;102984.72;5077789;27;20476;-37
2022/01/21 11:07:08;;;;;;;0.20;0.20;;;;;;;19.19;36.99;102992.38;5094916;27;20047;-37
2022/01/21 11:09:36;;;;;;;0.20;0.20;;;;;;;19.31;37.33;102987.78;5116223;27;20426;-39
2022/01/21 11:12:12;;;;;;;0.20;0.20;;;;;;;19.43;37.13;102982.28;5079330;27;20439;-41
2022/01/21 11:14:54;;;;;;;0.20;0.20;;;;;;;19.38;36.77;102985.75;5120127;27;20044;-28
2022/01/21 11:17:20;;;;;;;0.20;0.20;;;;;;;19.38;37.20;102980.22;5117978;27;20043;-29
2022/01/21 11:20:18;;;;;;;0.25;0.25;;;;;;;19.36;37.01;102982.41;5116946;27;20086;-29
2022/01/21 11:22:52;;;;;;;0.20;0.20;;;;;;;19.35;37.33;102979.88;5069662;27;20771;-29
2022/01/21 11:25:38;;;;;;;0.20;0.20;;;;;;;19.34;37.48;102975.41;5116638;27;20371;-30
2022/01/21 11:28:04;;;;;;;0.20;0.20;;;;;;;19.33;37.52;102965.44;5098761;27;20564;-29
2022/01/21 11:30:29;;;;;;;0.20;0.20;;;;;;;19.34;37.60;102965.19;5116909;27;20040;-29
2022/01/21 11:32:55;;;;;;;0.20;0.20;;;;;;;19.34;37.61;102961.59;5114327;27;20062;-30
2022/01/21 11:35:21;;;;;;;0.20;0.20;;;;;;;19.34;37.37;102956.91;5116173;27;20047;-29
2022/01/21 11:37:48;;;;;;;0.20;0.20;;;;;;;19.35;37.74;102955.84;5115286;27;20100;-29
2022/01/21 11:40:14;;;;;;;0.20;0.20;;;;;;;19.35;37.52;102944.78;5106527;27;20225;-30
2022/01/21 11:42:40;;;;;;;0.20;0.20;;;;;;;19.36;37.48;102951.16;5112963;27;20306;-30
2022/01/21 11:45:30;;;;;;;0.20;0.20;;;;;;;19.36;37.79;102942.88;5091596;27;20048;-30
2022/01/21 11:48:49;;;;;;;0.20;0.20;;;;;;;19.36;37.44;102932.66;5096669;27;20054;-30
2022/01/21 11:50:37;;;;;;;0.20;0.20;;;;;;;19.38;37.69;102937.94;5095949;27;20061;-30
2022/01/21 11:53:05;;;;;;;0.20;0.20;;;;;;;19.37;37.75;102936.25;5112454;27;20044;-30
2022/01/21 11:55:33;;;;;;;0.20;0.20;;;;;;;19.37;37.67;102934.34;5117642;27;20338;-30
2022/01/21 11:58:20;;;;;;;0.20;0.20;;;;;;;19.39;37.58;102934.13;5094140;27;20051;-29
2022/01/21 12:00:48;;;;;;;0.20;0.20;;;;;;;19.38;37.71;102932.41;5097583;27;20501;-29
2022/01/21 12:03:15;;;;;;;0.20;0.20;;;;;;;19.39;37.53;102932.19;5115990;27;20043;-30
2022/01/21 12:05:41;;;;;;;0.30;0.30;;;;;;;19.40;37.37;102924.75;5120334;27;20049;-29
2022/01/21 12:08:07;;;;;;;0.20;0.20;;;;;;;19.39;37.48;102929.44;5102471;27;20039;-29
2022/01/21 12:10:37;;;;;;;0.20;0.20;;;;;;;19.40;37.27;102928.34;5094124;27;20043;-30
2022/01/21 12:13:07;;;;;;;0.20;0.20;;;;;;;19.41;37.61;102927.28;5094826;27;20048;-29